| time (UTC) | temp F | wind direction | speed MPH | gust MPH | rain 1hr in | rain 24hr in | rain mn in | humidity % | barometer mb |
| 20260904030037 | 78 | 202 | 4.0 | 8.0 | 0.00 | 0.10 | 0.10 | 82 | 1010.0 |
| 20260904024530 | 78 | 178 | 1.0 | 6.0 | 0.00 | 0.10 | 0.10 | 81 | 1009.9 |
| 20260904023030 | 79 | 146 | 0.0 | 4.0 | 0.00 | 0.10 | 0.10 | 80 | 1009.9 |
| 20260904021535 | 79 | 153 | 2.0 | 7.0 | 0.00 | 0.10 | 0.10 | 80 | 1009.8 |
| 20260904020040 | 79 | 151 | 1.0 | 9.0 | 0.00 | 0.10 | 0.10 | 79 | 1009.8 |
| 20260904014522 | 80 | 111 | 2.0 | 8.0 | 0.00 | 0.10 | 0.10 | 78 | 1009.6 |
| 20260904013020 | 81 | 93 | 2.0 | 7.0 | 0.00 | 0.10 | 0.10 | 76 | 1009.5 |
| 20260904011522 | 81 | 119 | 2.0 | 8.0 | 0.00 | 0.10 | 0.10 | 75 | 1009.3 |
| 20260904010021 | 82 | 131 | 4.0 | 9.0 | 0.00 | 0.10 | 0.10 | 73 | 1009.2 |
| 20260904004521 | 83 | 51 | 2.0 | 8.0 | 0.00 | 0.10 | 0.10 | 71 | 1009.2 |
| 20260904003024 | 85 | 123 | 2.0 | 7.0 | 0.00 | 0.10 | 0.10 | 68 | 1009.3 |
| 20260904001522 | 85 | 140 | 3.0 | 8.0 | 0.00 | 0.10 | 0.10 | 68 | 1009.2 |
| 20260904000024 | 86 | 128 | 4.0 | 10.0 | 0.00 | 0.10 | 0.10 | 66 | 1009.2 |
| 20260903234524 | 86 | 147 | 8.0 | 13.0 | 0.00 | 0.10 | 0.10 | 66 | 1009.3 |
| 20260903233033 | 86 | 193 | 6.0 | 14.0 | 0.00 | 0.10 | 0.10 | 64 | 1009.3 |
| 20260903231523 | 87 | 178 | 5.0 | 15.0 | 0.00 | 0.10 | 0.10 | 63 | 1009.1 |
| 20260903230027 | 88 | 76 | 7.0 | 18.0 | 0.00 | 0.10 | 0.10 | 62 | 1008.8 |
| 20260903224507 | 88 | 82 | 6.0 | 18.0 | 0.00 | 0.10 | 0.10 | 62 | 1008.8 |
| 20260903223023 | 88 | 42 | 8.0 | 18.0 | 0.00 | 0.10 | 0.10 | 61 | 1008.7 |
| 20260903221536 | 88 | 141 | 8.0 | 18.0 | 0.00 | 0.10 | 0.10 | 61 | 1008.7 |
| 20260903220008 | 88 | 178 | 7.0 | 20.0 | 0.00 | 0.10 | 0.10 | 60 | 1008.8 |
| 20260903214511 | 88 | 130 | 7.0 | 19.0 | 0.00 | 0.10 | 0.10 | 60 | 1009.1 |
| 20260903213033 | 88 | 175 | 6.0 | 16.0 | 0.00 | 0.10 | 0.10 | 61 | 1009.3 |
| 20260903211509 | 88 | 103 | 7.0 | 15.0 | 0.00 | 0.10 | 0.10 | 61 | 1009.4 |
| 20260903210023 | 88 | 150 | 7.0 | 13.0 | 0.00 | 0.10 | 0.10 | 63 | 1009.2 |
| 20260903204515 | 86 | 142 | 4.0 | 11.0 | 0.00 | 0.10 | 0.10 | 66 | 1009.5 |
| 20260903203039 | 85 | 165 | 3.0 | 11.0 | 0.00 | 0.10 | 0.10 | 65 | 1009.7 |
| 20260903201518 | 86 | 111 | 6.0 | 18.0 | 0.00 | 0.10 | 0.10 | 62 | 1009.7 |
| 20260903200021 | 87 | 147 | 8.0 | 16.0 | 0.00 | 0.10 | 0.10 | 59 | 1009.8 |
| 20260903194522 | 87 | 162 | 5.0 | 15.0 | 0.00 | 0.10 | 0.10 | 63 | 1009.8 |
| 20260903193007 | 87 | 144 | 7.0 | 18.0 | 0.00 | 0.10 | 0.10 | 62 | 1010.4 |
| 20260903191534 | 87 | 161 | 8.0 | 14.0 | 0.00 | 0.10 | 0.10 | 64 | 1010.0 |
| 20260903190014 | 86 | 137 | 8.0 | 18.0 | 0.00 | 0.10 | 0.10 | 67 | 1010.1 |
| 20260903184523 | 84 | 123 | 6.0 | 13.0 | 0.01 | 0.10 | 0.10 | 71 | 1010.1 |
| 20260903183026 | 82 | 126 | 4.0 | 12.0 | 0.06 | 0.10 | 0.10 | 80 | 1010.3 |
| 20260903181510 | 79 | 171 | 4.0 | 10.0 | 0.06 | 0.10 | 0.10 | 89 | 1010.4 |
| 20260903180028 | 77 | 108 | 2.0 | 5.0 | 0.06 | 0.10 | 0.10 | 87 | 1010.6 |
| 20260903174527 | 78 | 294 | 1.0 | 11.0 | 0.08 | 0.09 | 0.09 | 83 | 1010.4 |
| 20260903173028 | 78 | 138 | 3.0 | 8.0 | 0.04 | 0.04 | 0.04 | 84 | 1010.4 |
| 20260903171525 | 77 | 41 | 3.0 | 10.0 | 0.04 | 0.04 | 0.04 | 86 | 1010.6 |
| 20260903170023 | 77 | 86 | 2.0 | 7.0 | 0.04 | 0.04 | 0.04 | 84 | 1011.0 |
| 20260903164518 | 77 | 9 | 1.0 | 9.0 | 0.01 | 0.01 | 0.01 | 80 | 1011.3 |
| 20260903163039 | 78 | 116 | 4.0 | 10.0 | 0.00 | 0.00 | 0.00 | 78 | 1011.1 |
| 20260903161515 | 78 | 126 | 2.0 | 8.0 | 0.00 | 0.00 | 0.00 | 78 | 1010.9 |
| 20260903160031 | 77 | 130 | 7.0 | 14.0 | 0.00 | 0.00 | 0.00 | 77 | 1011.3 |
| 20260903154530 | 76 | 133 | 2.0 | 9.0 | 0.00 | 0.00 | 0.00 | 80 | 1011.1 |
| 20260903153031 | 76 | 113 | 1.0 | 7.0 | 0.00 | 0.00 | 0.00 | 82 | 1011.1 |
| 20260903151524 | 76 | 111 | 2.0 | 6.0 | 0.00 | 0.00 | 0.00 | 82 | 1011.3 |
| 20260903150032 | 76 | 41 | 2.0 | 10.0 | 0.00 | 0.00 | 0.00 | 79 | 1011.3 |
| 20260903144514 | 76 | 81 | 2.0 | 7.0 | 0.00 | 0.00 | 0.00 | 78 | 1011.1 |
| 20260903143031 | 75 | 108 | 3.0 | 6.0 | 0.00 | 0.00 | 0.00 | 80 | 1011.0 |
| 20260903141529 | 74 | 123 | 2.0 | 7.0 | 0.00 | 0.00 | 0.00 | 81 | 1011.1 |
| 20260903140030 | 74 | 147 | 3.0 | 9.0 | 0.00 | 0.00 | 0.00 | 82 | 1011.3 |
| 20260903134524 | 73 | 86 | 2.0 | 6.0 | 0.00 | 0.00 | 0.00 | 83 | 1011.2 |
| 20260903133033 | 72 | 105 | 5.0 | 11.0 | 0.00 | 0.00 | 0.00 | 83 | 1011.2 |
| 20260903131516 | 72 | 131 | 3.0 | 7.0 | 0.00 | 0.00 | 0.00 | 83 | 1011.2 |
| 20260903130031 | 72 | 134 | 3.0 | 14.0 | 0.00 | 0.00 | 0.00 | 83 | 1011.0 |
| 20260903124532 | 72 | 178 | 5.0 | 9.0 | 0.00 | 0.00 | 0.00 | 83 | 1010.9 |
| 20260903123036 | 73 | 221 | 2.0 | 6.0 | 0.00 | 0.00 | 0.00 | 84 | 1010.8 |
| 20260903121525 | 73 | 129 | 4.0 | 14.0 | 0.00 | 0.00 | 0.00 | 84 | 1010.1 |
| 20260903120032 | 73 | 129 | 3.0 | 11.0 | 0.00 | 0.00 | 0.00 | 86 | 1010.3 |
| 20260903114524 | 73 | 134 | 7.0 | 18.0 | 0.00 | 0.00 | 0.00 | 87 | 1010.7 |
| 20260903113037 | 73 | 177 | 7.0 | 16.0 | 0.00 | 0.00 | 0.00 | 88 | 1011.4 |
| 20260903111528 | 73 | 178 | 4.0 | 10.0 | 0.00 | 0.00 | 0.00 | 89 | 1011.5 |
| 20260903110105 | 73 | 252 | 3.0 | 7.0 | 0.00 | 0.00 | 0.00 | 89 | 1011.3 |
| 20260903104508 | 73 | 211 | 2.0 | 10.0 | 0.00 | 0.00 | 0.00 | 90 | 1011.2 |
| 20260903103007 | 72 | 129 | 4.0 | 14.0 | 0.00 | 0.08 | 0.00 | 91 | 1011.3 |
| 20260903101531 | 72 | 178 | 2.0 | 8.0 | 0.00 | 0.13 | 0.00 | 91 | 1011.2 |
| 20260903100011 | 71 | 48 | 3.0 | 9.0 | 0.00 | 0.13 | 0.00 | 91 | 1011.0 |
| 20260903094542 | 71 | 61 | 3.0 | 12.0 | 0.00 | 0.13 | 0.00 | 92 | 1011.4 |
| 20260903093015 | 71 | 128 | 3.0 | 7.0 | 0.00 | 0.13 | 0.00 | 92 | 1011.2 |
| 20260903091514 | 71 | 144 | 2.0 | 4.0 | 0.00 | 0.13 | 0.00 | 92 | 1011.1 |
| 20260903090011 | 71 | 80 | 1.0 | 4.0 | 0.00 | 0.13 | 0.00 | 92 | 1010.8 |
| 20260903084520 | 71 | 83 | 2.0 | 6.0 | 0.00 | 0.13 | 0.00 | 92 | 1010.8 |
| 20260903083031 | 71 | 78 | 2.0 | 6.0 | 0.00 | 0.13 | 0.00 | 92 | 1011.0 |
| 20260903081538 | 71 | 56 | 1.0 | 6.0 | 0.00 | 0.13 | 0.00 | 92 | 1011.0 |
| 20260903080015 | 71 | 74 | 2.0 | 6.0 | 0.00 | 0.13 | 0.00 | 92 | 1011.0 |
| 20260903074516 | 71 | 76 | 1.0 | 4.0 | 0.00 | 0.13 | 0.00 | 92 | 1011.2 |
| 20260903073013 | 72 | 102 | 2.0 | 6.0 | 0.00 | 0.13 | 0.00 | 92 | 1011.1 |
| 20260903071507 | 72 | 84 | 1.0 | 4.0 | 0.00 | 0.14 | 0.00 | 92 | 1011.5 |
| 20260903070027 | 72 | 85 | 2.0 | 5.0 | 0.00 | 0.17 | 0.00 | 92 | 1011.4 |
| 20260903064527 | 72 | 87 | 2.0 | 4.0 | 0.00 | 0.18 | 0.00 | 91 | 1011.5 |
| 20260903063024 | 72 | 61 | 1.0 | 5.0 | 0.00 | 0.20 | 0.00 | 91 | 1011.5 |
| 20260903061513 | 72 | 59 | 1.0 | 3.0 | 0.00 | 0.20 | 0.00 | 91 | 1011.6 |
| 20260903060019 | 72 | 67 | 2.0 | 4.0 | 0.00 | 0.21 | 0.00 | 90 | 1011.6 |
| 20260903054535 | 72 | 76 | 2.0 | 5.0 | 0.00 | 0.21 | 0.00 | 90 | 1011.7 |
| 20260903053045 | 72 | 41 | 1.0 | 4.0 | 0.00 | 0.21 | 0.00 | 89 | 1011.6 |
| 20260903051515 | 73 | 61 | 2.0 | 4.0 | 0.00 | 0.21 | 0.00 | 89 | 1011.6 |
| 20260903050026 | 73 | 61 | 1.0 | 3.0 | 0.00 | 0.22 | 0.00 | 88 | 1011.6 |
| 20260903044526 | 73 | 51 | 1.0 | 2.0 | 0.00 | 0.24 | 0.23 | 88 | 1011.7 |
| 20260903043010 | 73 | 57 | 1.0 | 3.0 | 0.00 | 0.24 | 0.23 | 88 | 1011.8 |
| 20260903041514 | 73 | 93 | 1.0 | 4.0 | 0.00 | 0.24 | 0.23 | 87 | 1011.8 |
| 20260903040012 | 74 | 76 | 1.0 | 4.0 | 0.00 | 0.24 | 0.23 | 87 | 1012.0 |
| 20260903034510 | 74 | 57 | 1.0 | 3.0 | 0.00 | 0.24 | 0.23 | 86 | 1012.0 |
| 20260903033010 | 74 | 81 | 2.0 | 6.0 | 0.00 | 0.24 | 0.23 | 86 | 1012.0 |
| 20260903031518 | 74 | 126 | 3.0 | 6.0 | 0.00 | 0.24 | 0.23 | 85 | 1012.1 |